sensor_id;sensor_type;location;lat;lon;timestamp;temperature;humidity
16929;DHT22;8581;47.334;11.190;2022-11-13T00:01:25;1.40;99.90
16929;DHT22;8581;47.334;11.190;2022-11-13T00:03:57;1.30;99.90
16929;DHT22;8581;47.334;11.190;2022-11-13T00:06:28;1.40;99.90
16929;DHT22;8581;47.334;11.190;2022-11-13T00:08:59;1.40;99.90
16929;DHT22;8581;47.334;11.190;2022-11-13T00:11:31;1.50;99.90
16929;DHT22;8581;47.334;11.190;2022-11-13T00:14:04;1.50;99.90
16929;DHT22;8581;47.334;11.190;2022-11-13T00:16:36;1.50;99.90
16929;DHT22;8581;47.334;11.190;2022-11-13T00:19:07;1.50;99.90
16929;DHT22;8581;47.334;11.190;2022-11-13T00:21:39;1.40;99.90
16929;DHT22;8581;47.334;11.190;2022-11-13T00:24:10;1.50;99.90
16929;DHT22;8581;47.334;11.190;2022-11-13T00:26:42;1.50;99.90
16929;DHT22;8581;47.334;11.190;2022-11-13T00:29:14;1.40;99.90
16929;DHT22;8581;47.334;11.190;2022-11-13T00:31:45;1.50;99.90
16929;DHT22;8581;47.334;11.190;2022-11-13T00:34:17;1.40;99.90
16929;DHT22;8581;47.334;11.190;2022-11-13T00:36:48;1.40;99.90
16929;DHT22;8581;47.334;11.190;2022-11-13T00:39:20;1.40;99.90
16929;DHT22;8581;47.334;11.190;2022-11-13T00:41:52;1.30;99.90
16929;DHT22;8581;47.334;11.190;2022-11-13T00:44:23;1.40;99.90
16929;DHT22;8581;47.334;11.190;2022-11-13T00:46:55;1.40;99.90
16929;DHT22;8581;47.334;11.190;2022-11-13T00:49:26;1.40;99.90
16929;DHT22;8581;47.334;11.190;2022-11-13T00:51:58;1.40;99.90
16929;DHT22;8581;47.334;11.190;2022-11-13T00:54:30;1.30;99.90
16929;DHT22;8581;47.334;11.190;2022-11-13T00:57:01;1.30;99.90
16929;DHT22;8581;47.334;11.190;2022-11-13T00:59:33;1.40;99.90
16929;DHT22;8581;47.334;11.190;2022-11-13T01:02:04;1.40;99.90
16929;DHT22;8581;47.334;11.190;2022-11-13T01:04:36;1.60;99.90
16929;DHT22;8581;47.334;11.190;2022-11-13T01:07:08;1.60;99.90
16929;DHT22;8581;47.334;11.190;2022-11-13T01:09:39;1.60;99.90
16929;DHT22;8581;47.334;11.190;2022-11-13T01:12:11;1.50;99.90
16929;DHT22;8581;47.334;11.190;2022-11-13T01:14:42;1.50;99.90
16929;DHT22;8581;47.334;11.190;2022-11-13T01:17:14;1.40;99.90
16929;DHT22;8581;47.334;11.190;2022-11-13T01:19:46;1.30;99.90
16929;DHT22;8581;47.334;11.190;2022-11-13T01:22:17;1.20;99.90
16929;DHT22;8581;47.334;11.190;2022-11-13T01:24:49;1.20;99.90
16929;DHT22;8581;47.334;11.190;2022-11-13T01:27:20;1.20;99.90
16929;DHT22;8581;47.334;11.190;2022-11-13T01:29:52;1.40;99.90
16929;DHT22;8581;47.334;11.190;2022-11-13T01:32:24;1.40;99.90
16929;DHT22;8581;47.334;11.190;2022-11-13T01:34:55;1.40;99.90
16929;DHT22;8581;47.334;11.190;2022-11-13T01:37:27;1.50;99.90
16929;DHT22;8581;47.334;11.190;2022-11-13T01:39:58;1.50;99.90
16929;DHT22;8581;47.334;11.190;2022-11-13T01:42:31;1.40;99.90
16929;DHT22;8581;47.334;11.190;2022-11-13T01:45:03;1.30;99.90
16929;DHT22;8581;47.334;11.190;2022-11-13T01:47:34;1.40;99.90
16929;DHT22;8581;47.334;11.190;2022-11-13T01:50:08;1.40;99.90
16929;DHT22;8581;47.334;11.190;2022-11-13T01:52:38;1.30;99.90
16929;DHT22;8581;47.334;11.190;2022-11-13T01:55:11;1.30;99.90
16929;DHT22;8581;47.334;11.190;2022-11-13T01:57:42;1.20;99.90
16929;DHT22;8581;47.334;11.190;2022-11-13T02:00:13;1.20;99.90
16929;DHT22;8581;47.334;11.190;2022-11-13T02:02:45;1.20;99.90
16929;DHT22;8581;47.334;11.190;2022-11-13T02:05:17;1.10;99.90
16929;DHT22;8581;47.334;11.190;2022-11-13T02:07:48;1.10;99.90
16929;DHT22;8581;47.334;11.190;2022-11-13T02:10:20;1.10;99.90
16929;DHT22;8581;47.334;11.190;2022-11-13T02:12:51;1.10;99.90
16929;DHT22;8581;47.334;11.190;2022-11-13T02:15:23;1.10;99.90
16929;DHT22;8581;47.334;11.190;2022-11-13T02:17:56;1.00;99.90
16929;DHT22;8581;47.334;11.190;2022-11-13T02:20:31;1.00;99.90
16929;DHT22;8581;47.334;11.190;2022-11-13T02:25:39;1.10;99.90
16929;DHT22;8581;47.334;11.190;2022-11-13T02:28:12;1.20;99.90
16929;DHT22;8581;47.334;11.190;2022-11-13T02:30:44;1.30;99.90
16929;DHT22;8581;47.334;11.190;2022-11-13T02:33:25;1.40;99.90
16929;DHT22;8581;47.334;11.190;2022-11-13T02:35:56;1.50;99.90
16929;DHT22;8581;47.334;11.190;2022-11-13T02:38:27;1.30;99.90
16929;DHT22;8581;47.334;11.190;2022-11-13T02:40:59;1.20;99.90
16929;DHT22;8581;47.334;11.190;2022-11-13T02:43:30;1.30;99.90
16929;DHT22;8581;47.334;11.190;2022-11-13T02:46:02;1.30;99.90
16929;DHT22;8581;47.334;11.190;2022-11-13T02:48:33;1.30;99.90
16929;DHT22;8581;47.334;11.190;2022-11-13T02:51:05;1.10;99.90
16929;DHT22;8581;47.334;11.190;2022-11-13T02:53:37;1.00;99.90
16929;DHT22;8581;47.334;11.190;2022-11-13T02:56:08;1.10;99.90
16929;DHT22;8581;47.334;11.190;2022-11-13T02:58:40;1.10;99.90
16929;DHT22;8581;47.334;11.190;2022-11-13T03:01:11;1.30;99.90
16929;DHT22;8581;47.334;11.190;2022-11-13T03:03:43;1.20;99.90
16929;DHT22;8581;47.334;11.190;2022-11-13T03:06:15;1.10;99.90
16929;DHT22;8581;47.334;11.190;2022-11-13T03:08:46;1.10;99.90
16929;DHT22;8581;47.334;11.190;2022-11-13T03:11:18;1.10;99.90
16929;DHT22;8581;47.334;11.190;2022-11-13T03:13:49;1.00;99.90
16929;DHT22;8581;47.334;11.190;2022-11-13T03:16:21;1.10;99.90
16929;DHT22;8581;47.334;11.190;2022-11-13T03:18:53;0.90;99.90
16929;DHT22;8581;47.334;11.190;2022-11-13T03:21:24;0.90;99.90
16929;DHT22;8581;47.334;11.190;2022-11-13T03:23:56;0.90;99.90
16929;DHT22;8581;47.334;11.190;2022-11-13T03:26:27;0.80;99.90
16929;DHT22;8581;47.334;11.190;2022-11-13T03:28:59;1.00;99.90
16929;DHT22;8581;47.334;11.190;2022-11-13T03:31:30;1.10;99.90
16929;DHT22;8581;47.334;11.190;2022-11-13T03:34:02;1.00;99.90
16929;DHT22;8581;47.334;11.190;2022-11-13T03:36:34;1.00;99.90
16929;DHT22;8581;47.334;11.190;2022-11-13T03:39:05;1.00;99.90
16929;DHT22;8581;47.334;11.190;2022-11-13T03:41:37;1.00;99.90
16929;DHT22;8581;47.334;11.190;2022-11-13T03:44:08;1.00;99.90
16929;DHT22;8581;47.334;11.190;2022-11-13T03:46:40;1.10;99.90
16929;DHT22;8581;47.334;11.190;2022-11-13T03:49:12;1.00;99.90
16929;DHT22;8581;47.334;11.190;2022-11-13T03:51:43;0.90;99.90
16929;DHT22;8581;47.334;11.190;2022-11-13T03:54:15;0.90;99.90
16929;DHT22;8581;47.334;11.190;2022-11-13T03:56:46;0.90;99.90
16929;DHT22;8581;47.334;11.190;2022-11-13T03:59:18;0.90;99.90
16929;DHT22;8581;47.334;11.190;2022-11-13T04:01:49;0.90;99.90
16929;DHT22;8581;47.334;11.190;2022-11-13T04:04:21;0.90;99.90
16929;DHT22;8581;47.334;11.190;2022-11-13T04:06:53;0.90;99.90
16929;DHT22;8581;47.334;11.190;2022-11-13T04:09:24;1.00;99.90
16929;DHT22;8581;47.334;11.190;2022-11-13T04:11:56;0.90;99.90
16929;DHT22;8581;47.334;11.190;2022-11-13T04:14:27;0.80;99.90
16929;DHT22;8581;47.334;11.190;2022-11-13T04:16:59;0.90;99.90
16929;DHT22;8581;47.334;11.190;2022-11-13T04:19:31;0.90;99.90
16929;DHT22;8581;47.334;11.190;2022-11-13T04:22:02;0.80;99.90
16929;DHT22;8581;47.334;11.190;2022-11-13T04:24:34;0.70;99.90
16929;DHT22;8581;47.334;11.190;2022-11-13T04:27:05;0.70;99.90
16929;DHT22;8581;47.334;11.190;2022-11-13T04:29:37;0.80;99.90
16929;DHT22;8581;47.334;11.190;2022-11-13T04:32:09;0.80;99.90
16929;DHT22;8581;47.334;11.190;2022-11-13T04:34:40;0.80;99.90
16929;DHT22;8581;47.334;11.190;2022-11-13T04:37:12;0.90;99.90
16929;DHT22;8581;47.334;11.190;2022-11-13T04:39:44;0.90;99.90
16929;DHT22;8581;47.334;11.190;2022-11-13T04:42:15;1.00;99.90
16929;DHT22;8581;47.334;11.190;2022-11-13T04:44:52;1.00;99.90
16929;DHT22;8581;47.334;11.190;2022-11-13T04:47:24;0.90;99.90
16929;DHT22;8581;47.334;11.190;2022-11-13T04:49:55;0.90;99.90
16929;DHT22;8581;47.334;11.190;2022-11-13T04:52:27;0.90;99.90
16929;DHT22;8581;47.334;11.190;2022-11-13T04:54:59;0.80;99.90
16929;DHT22;8581;47.334;11.190;2022-11-13T04:57:30;0.80;99.90
16929;DHT22;8581;47.334;11.190;2022-11-13T05:00:03;0.80;99.90
16929;DHT22;8581;47.334;11.190;2022-11-13T05:02:34;0.70;99.90
16929;DHT22;8581;47.334;11.190;2022-11-13T05:05:05;0.60;99.90
16929;DHT22;8581;47.334;11.190;2022-11-13T05:07:37;0.70;99.90
16929;DHT22;8581;47.334;11.190;2022-11-13T05:10:09;0.70;99.90
16929;DHT22;8581;47.334;11.190;2022-11-13T05:12:40;0.60;99.90
16929;DHT22;8581;47.334;11.190;2022-11-13T05:15:12;0.60;99.90
16929;DHT22;8581;47.334;11.190;2022-11-13T05:17:47;0.60;99.90
16929;DHT22;8581;47.334;11.190;2022-11-13T05:20:16;0.60;99.90
16929;DHT22;8581;47.334;11.190;2022-11-13T05:22:47;0.60;99.90
16929;DHT22;8581;47.334;11.190;2022-11-13T05:25:19;0.60;99.90
16929;DHT22;8581;47.334;11.190;2022-11-13T05:27:50;0.60;99.90
16929;DHT22;8581;47.334;11.190;2022-11-13T05:30:22;0.60;99.90
16929;DHT22;8581;47.334;11.190;2022-11-13T05:32:54;0.60;99.90
16929;DHT22;8581;47.334;11.190;2022-11-13T05:35:25;0.60;99.90
16929;DHT22;8581;47.334;11.190;2022-11-13T05:37:59;0.70;99.90
16929;DHT22;8581;47.334;11.190;2022-11-13T05:40:30;0.70;99.90
16929;DHT22;8581;47.334;11.190;2022-11-13T05:43:02;0.60;99.90
16929;DHT22;8581;47.334;11.190;2022-11-13T05:45:34;0.60;99.90
16929;DHT22;8581;47.334;11.190;2022-11-13T05:48:05;0.50;99.90
16929;DHT22;8581;47.334;11.190;2022-11-13T05:50:37;0.50;99.90
16929;DHT22;8581;47.334;11.190;2022-11-13T05:53:08;0.60;99.90
16929;DHT22;8581;47.334;11.190;2022-11-13T05:55:40;0.60;99.90
16929;DHT22;8581;47.334;11.190;2022-11-13T05:58:12;0.50;99.90
16929;DHT22;8581;47.334;11.190;2022-11-13T06:00:43;0.40;99.90
16929;DHT22;8581;47.334;11.190;2022-11-13T06:03:15;0.40;99.90
16929;DHT22;8581;47.334;11.190;2022-11-13T06:05:46;0.40;99.90
16929;DHT22;8581;47.334;11.190;2022-11-13T06:08:18;0.50;99.90
16929;DHT22;8581;47.334;11.190;2022-11-13T06:10:49;0.30;99.90
16929;DHT22;8581;47.334;11.190;2022-11-13T06:13:21;0.30;99.90
16929;DHT22;8581;47.334;11.190;2022-11-13T06:15:53;0.40;99.90
16929;DHT22;8581;47.334;11.190;2022-11-13T06:18:24;0.60;99.90
16929;DHT22;8581;47.334;11.190;2022-11-13T06:21:01;0.70;99.90
16929;DHT22;8581;47.334;11.190;2022-11-13T06:23:33;0.50;99.90
16929;DHT22;8581;47.334;11.190;2022-11-13T06:26:06;0.60;99.90
16929;DHT22;8581;47.334;11.190;2022-11-13T06:28:36;0.60;99.90
16929;DHT22;8581;47.334;11.190;2022-11-13T06:31:09;0.60;99.90
16929;DHT22;8581;47.334;11.190;2022-11-13T06:33:40;0.70;99.90
16929;DHT22;8581;47.334;11.190;2022-11-13T06:36:12;0.60;99.90
16929;DHT22;8581;47.334;11.190;2022-11-13T06:38:43;0.60;99.90
16929;DHT22;8581;47.334;11.190;2022-11-13T06:41:15;0.70;99.90
16929;DHT22;8581;47.334;11.190;2022-11-13T06:43:46;0.70;99.90
16929;DHT22;8581;47.334;11.190;2022-11-13T06:46:18;0.70;99.90
16929;DHT22;8581;47.334;11.190;2022-11-13T06:48:50;0.80;99.90
16929;DHT22;8581;47.334;11.190;2022-11-13T06:51:23;0.70;99.90
16929;DHT22;8581;47.334;11.190;2022-11-13T06:53:53;0.70;99.90
16929;DHT22;8581;47.334;11.190;2022-11-13T06:56:25;0.70;99.90
16929;DHT22;8581;47.334;11.190;2022-11-13T06:58:56;0.80;99.90
16929;DHT22;8581;47.334;11.190;2022-11-13T07:01:28;0.70;99.90
16929;DHT22;8581;47.334;11.190;2022-11-13T07:03:59;0.70;99.90
16929;DHT22;8581;47.334;11.190;2022-11-13T07:06:31;0.70;99.90
16929;DHT22;8581;47.334;11.190;2022-11-13T07:09:03;0.70;99.90
16929;DHT22;8581;47.334;11.190;2022-11-13T07:11:34;0.70;99.90
16929;DHT22;8581;47.334;11.190;2022-11-13T07:14:07;0.60;99.90
16929;DHT22;8581;47.334;11.190;2022-11-13T07:16:37;0.70;99.90
16929;DHT22;8581;47.334;11.190;2022-11-13T07:19:09;0.90;99.90
16929;DHT22;8581;47.334;11.190;2022-11-13T07:21:41;1.10;99.90
16929;DHT22;8581;47.334;11.190;2022-11-13T07:24:12;1.20;99.90
16929;DHT22;8581;47.334;11.190;2022-11-13T07:26:44;1.20;99.90
16929;DHT22;8581;47.334;11.190;2022-11-13T07:29:15;1.20;99.90
16929;DHT22;8581;47.334;11.190;2022-11-13T07:31:47;1.20;99.90
16929;DHT22;8581;47.334;11.190;2022-11-13T07:34:19;1.10;99.90
16929;DHT22;8581;47.334;11.190;2022-11-13T07:36:50;1.10;99.90
16929;DHT22;8581;47.334;11.190;2022-11-13T07:39:22;1.30;99.90
16929;DHT22;8581;47.334;11.190;2022-11-13T07:41:53;1.30;99.90
16929;DHT22;8581;47.334;11.190;2022-11-13T07:44:25;1.30;99.90
16929;DHT22;8581;47.334;11.190;2022-11-13T07:46:57;1.30;99.90
16929;DHT22;8581;47.334;11.190;2022-11-13T07:49:28;1.40;99.90
16929;DHT22;8581;47.334;11.190;2022-11-13T07:52:00;1.60;99.90
16929;DHT22;8581;47.334;11.190;2022-11-13T07:54:31;1.70;99.90
16929;DHT22;8581;47.334;11.190;2022-11-13T07:57:03;1.80;99.90
16929;DHT22;8581;47.334;11.190;2022-11-13T07:59:35;2.00;99.90
16929;DHT22;8581;47.334;11.190;2022-11-13T08:02:08;2.40;99.90
16929;DHT22;8581;47.334;11.190;2022-11-13T08:04:38;3.10;99.90
16929;DHT22;8581;47.334;11.190;2022-11-13T08:07:10;3.40;99.90
16929;DHT22;8581;47.334;11.190;2022-11-13T08:09:41;3.90;99.90
16929;DHT22;8581;47.334;11.190;2022-11-13T08:12:13;4.20;99.90
16929;DHT22;8581;47.334;11.190;2022-11-13T08:14:44;4.40;99.90
16929;DHT22;8581;47.334;11.190;2022-11-13T08:17:16;4.80;99.90
16929;DHT22;8581;47.334;11.190;2022-11-13T08:19:47;5.10;99.90
16929;DHT22;8581;47.334;11.190;2022-11-13T08:22:19;5.90;99.90
16929;DHT22;8581;47.334;11.190;2022-11-13T08:24:51;6.20;99.90
16929;DHT22;8581;47.334;11.190;2022-11-13T08:27:23;6.60;99.90
16929;DHT22;8581;47.334;11.190;2022-11-13T08:29:55;6.70;99.90
16929;DHT22;8581;47.334;11.190;2022-11-13T08:32:26;7.00;99.90
16929;DHT22;8581;47.334;11.190;2022-11-13T08:34:58;7.10;99.90
16929;DHT22;8581;47.334;11.190;2022-11-13T08:37:30;7.20;99.90
16929;DHT22;8581;47.334;11.190;2022-11-13T08:40:01;8.00;99.90
16929;DHT22;8581;47.334;11.190;2022-11-13T08:42:33;8.20;99.90
16929;DHT22;8581;47.334;11.190;2022-11-13T08:45:05;8.50;99.90
16929;DHT22;8581;47.334;11.190;2022-11-13T08:47:37;8.70;99.90
16929;DHT22;8581;47.334;11.190;2022-11-13T08:50:09;8.70;99.90
16929;DHT22;8581;47.334;11.190;2022-11-13T08:52:41;9.00;99.90
16929;DHT22;8581;47.334;11.190;2022-11-13T08:55:13;9.30;99.90
16929;DHT22;8581;47.334;11.190;2022-11-13T08:57:44;9.30;99.90
16929;DHT22;8581;47.334;11.190;2022-11-13T09:00:16;9.50;99.90
16929;DHT22;8581;47.334;11.190;2022-11-13T09:02:52;9.70;99.90
16929;DHT22;8581;47.334;11.190;2022-11-13T09:05:21;9.80;99.90
16929;DHT22;8581;47.334;11.190;2022-11-13T09:08:00;10.30;99.90
16929;DHT22;8581;47.334;11.190;2022-11-13T09:10:32;10.70;99.90
16929;DHT22;8581;47.334;11.190;2022-11-13T09:13:03;11.10;99.90
16929;DHT22;8581;47.334;11.190;2022-11-13T09:15:35;11.20;99.90
16929;DHT22;8581;47.334;11.190;2022-11-13T09:18:06;11.50;99.90
16929;DHT22;8581;47.334;11.190;2022-11-13T09:20:38;11.70;99.90
16929;DHT22;8581;47.334;11.190;2022-11-13T09:23:09;11.70;99.90
16929;DHT22;8581;47.334;11.190;2022-11-13T09:25:41;11.70;99.90
16929;DHT22;8581;47.334;11.190;2022-11-13T09:28:12;11.80;99.90
16929;DHT22;8581;47.334;11.190;2022-11-13T09:30:44;11.90;99.90
16929;DHT22;8581;47.334;11.190;2022-11-13T09:33:16;12.10;99.90
16929;DHT22;8581;47.334;11.190;2022-11-13T09:35:47;12.30;99.90
16929;DHT22;8581;47.334;11.190;2022-11-13T09:38:19;12.40;99.90
16929;DHT22;8581;47.334;11.190;2022-11-13T09:40:53;12.70;99.90
16929;DHT22;8581;47.334;11.190;2022-11-13T09:43:32;12.70;99.90
16929;DHT22;8581;47.334;11.190;2022-11-13T09:46:11;12.80;99.90
16929;DHT22;8581;47.334;11.190;2022-11-13T09:49:01;12.90;99.90
16929;DHT22;8581;47.334;11.190;2022-11-13T09:51:31;13.00;99.90
16929;DHT22;8581;47.334;11.190;2022-11-13T09:54:04;13.20;99.90
16929;DHT22;8581;47.334;11.190;2022-11-13T09:56:44;13.40;99.90
16929;DHT22;8581;47.334;11.190;2022-11-13T09:59:25;13.50;99.90
16929;DHT22;8581;47.334;11.190;2022-11-13T10:01:57;13.60;99.90
16929;DHT22;8581;47.334;11.190;2022-11-13T10:04:32;13.80;99.90
16929;DHT22;8581;47.334;11.190;2022-11-13T10:07:13;13.90;99.90
16929;DHT22;8581;47.334;11.190;2022-11-13T10:09:49;14.00;99.90
16929;DHT22;8581;47.334;11.190;2022-11-13T10:12:17;13.90;99.90
16929;DHT22;8581;47.334;11.190;2022-11-13T10:14:50;14.00;99.90
16929;DHT22;8581;47.334;11.190;2022-11-13T10:17:25;13.60;99.90
16929;DHT22;8581;47.334;11.190;2022-11-13T10:19:56;13.80;99.90
16929;DHT22;8581;47.334;11.190;2022-11-13T10:22:40;13.90;99.90
16929;DHT22;8581;47.334;11.190;2022-11-13T10:25:16;14.20;99.90
16929;DHT22;8581;47.334;11.190;2022-11-13T10:27:52;14.30;99.90
16929;DHT22;8581;47.334;11.190;2022-11-13T10:30:21;14.40;99.90
16929;DHT22;8581;47.334;11.190;2022-11-13T10:32:52;14.50;99.80
16929;DHT22;8581;47.334;11.190;2022-11-13T10:35:44;14.40;99.30
16929;DHT22;8581;47.334;11.190;2022-11-13T10:38:18;14.50;99.90
16929;DHT22;8581;47.334;11.190;2022-11-13T10:40:47;14.90;99.90
16929;DHT22;8581;47.334;11.190;2022-11-13T10:43:20;14.90;99.00
16929;DHT22;8581;47.334;11.190;2022-11-13T10:45:56;14.90;98.30
16929;DHT22;8581;47.334;11.190;2022-11-13T10:48:28;15.30;98.30
16929;DHT22;8581;47.334;11.190;2022-11-13T10:51:00;15.50;97.30
16929;DHT22;8581;47.334;11.190;2022-11-13T10:53:37;15.60;98.00
16929;DHT22;8581;47.334;11.190;2022-11-13T10:56:12;16.00;99.00
16929;DHT22;8581;47.334;11.190;2022-11-13T10:58:43;16.40;97.10
16929;DHT22;8581;47.334;11.190;2022-11-13T11:01:18;16.70;96.00
16929;DHT22;8581;47.334;11.190;2022-11-13T11:03:48;16.90;96.70
16929;DHT22;8581;47.334;11.190;2022-11-13T11:06:19;17.00;96.20
16929;DHT22;8581;47.334;11.190;2022-11-13T11:08:50;17.00;94.00
16929;DHT22;8581;47.334;11.190;2022-11-13T11:11:22;17.60;94.90
16929;DHT22;8581;47.334;11.190;2022-11-13T11:16:42;19.50;92.50
16929;DHT22;8581;47.334;11.190;2022-11-13T11:19:13;20.10;92.60
16929;DHT22;8581;47.334;11.190;2022-11-13T11:21:45;20.00;89.10
16929;DHT22;8581;47.334;11.190;2022-11-13T11:24:34;18.70;90.40
16929;DHT22;8581;47.334;11.190;2022-11-13T11:27:08;18.20;90.90
16929;DHT22;8581;47.334;11.190;2022-11-13T11:29:42;19.50;89.70
16929;DHT22;8581;47.334;11.190;2022-11-13T11:32:17;20.00;87.20
16929;DHT22;8581;47.334;11.190;2022-11-13T11:34:49;20.30;88.60
16929;DHT22;8581;47.334;11.190;2022-11-13T11:37:22;21.70;86.10
16929;DHT22;8581;47.334;11.190;2022-11-13T11:39:59;21.10;79.40
16929;DHT22;8581;47.334;11.190;2022-11-13T11:42:48;21.60;80.60
16929;DHT22;8581;47.334;11.190;2022-11-13T11:45:24;22.80;79.30
16929;DHT22;8581;47.334;11.190;2022-11-13T11:47:54;22.00;77.40
16929;DHT22;8581;47.334;11.190;2022-11-13T11:50:35;21.50;78.40
16929;DHT22;8581;47.334;11.190;2022-11-13T11:53:07;21.60;74.70
16929;DHT22;8581;47.334;11.190;2022-11-13T11:55:55;21.30;73.40
16929;DHT22;8581;47.334;11.190;2022-11-13T11:58:31;22.20;73.90
16929;DHT22;8581;47.334;11.190;2022-11-13T12:01:04;23.40;71.70
16929;DHT22;8581;47.334;11.190;2022-11-13T12:03:59;23.60;72.60
16929;DHT22;8581;47.334;11.190;2022-11-13T12:06:37;22.30;70.10
16929;DHT22;8581;47.334;11.190;2022-11-13T12:09:11;22.60;71.40
16929;DHT22;8581;47.334;11.190;2022-11-13T12:14:45;26.60;67.80
16929;DHT22;8581;47.334;11.190;2022-11-13T12:17:52;27.60;63.20
16929;DHT22;8581;47.334;11.190;2022-11-13T12:25:36;28.70;56.60
16929;DHT22;8581;47.334;11.190;2022-11-13T12:28:13;30.60;57.30
16929;DHT22;8581;47.334;11.190;2022-11-13T12:31:01;30.50;53.40
16929;DHT22;8581;47.334;11.190;2022-11-13T12:33:39;29.10;53.30
16929;DHT22;8581;47.334;11.190;2022-11-13T12:36:08;28.80;53.90
16929;DHT22;8581;47.334;11.190;2022-11-13T12:38:46;26.20;55.10
16929;DHT22;8581;47.334;11.190;2022-11-13T12:41:22;25.10;57.50
16929;DHT22;8581;47.334;11.190;2022-11-13T12:44:01;26.10;55.40
16929;DHT22;8581;47.334;11.190;2022-11-13T12:46:33;27.00;56.20
16929;DHT22;8581;47.334;11.190;2022-11-13T12:49:21;26.70;54.60
16929;DHT22;8581;47.334;11.190;2022-11-13T12:51:52;27.80;54.40
16929;DHT22;8581;47.334;11.190;2022-11-13T12:54:23;29.00;53.40
16929;DHT22;8581;47.334;11.190;2022-11-13T12:56:49;30.30;51.00
16929;DHT22;8581;47.334;11.190;2022-11-13T12:59:32;29.20;49.80
16929;DHT22;8581;47.334;11.190;2022-11-13T13:02:29;29.10;51.40
16929;DHT22;8581;47.334;11.190;2022-11-13T13:05:04;29.20;50.00
16929;DHT22;8581;47.334;11.190;2022-11-13T13:08:00;29.70;51.10
16929;DHT22;8581;47.334;11.190;2022-11-13T13:10:27;30.10;51.10
16929;DHT22;8581;47.334;11.190;2022-11-13T13:13:16;30.10;51.20
16929;DHT22;8581;47.334;11.190;2022-11-13T13:15:52;31.00;48.90
16929;DHT22;8581;47.334;11.190;2022-11-13T13:18:33;29.00;49.30
16929;DHT22;8581;47.334;11.190;2022-11-13T13:21:09;27.30;49.40
16929;DHT22;8581;47.334;11.190;2022-11-13T13:23:41;28.30;49.80
16929;DHT22;8581;47.334;11.190;2022-11-13T13:26:18;28.60;50.20
16929;DHT22;8581;47.334;11.190;2022-11-13T13:28:51;29.40;48.80
16929;DHT22;8581;47.334;11.190;2022-11-13T13:31:38;29.30;50.10
16929;DHT22;8581;47.334;11.190;2022-11-13T13:34:39;29.30;49.50
16929;DHT22;8581;47.334;11.190;2022-11-13T13:37:21;29.50;49.40
16929;DHT22;8581;47.334;11.190;2022-11-13T13:40:01;28.60;48.20
16929;DHT22;8581;47.334;11.190;2022-11-13T13:45:29;28.30;49.30
16929;DHT22;8581;47.334;11.190;2022-11-13T13:47:59;29.50;49.10
16929;DHT22;8581;47.334;11.190;2022-11-13T13:50:31;26.30;50.00
16929;DHT22;8581;47.334;11.190;2022-11-13T13:53:03;28.10;50.40
16929;DHT22;8581;47.334;11.190;2022-11-13T13:55:36;29.70;48.20
16929;DHT22;8581;47.334;11.190;2022-11-13T13:58:08;30.30;48.00
16929;DHT22;8581;47.334;11.190;2022-11-13T14:00:38;29.80;47.20
16929;DHT22;8581;47.334;11.190;2022-11-13T14:03:17;27.90;48.30
16929;DHT22;8581;47.334;11.190;2022-11-13T14:05:46;26.10;50.80
16929;DHT22;8581;47.334;11.190;2022-11-13T14:08:19;27.30;49.30
16929;DHT22;8581;47.334;11.190;2022-11-13T14:10:50;25.30;51.30
16929;DHT22;8581;47.334;11.190;2022-11-13T14:13:23;24.70;52.50
16929;DHT22;8581;47.334;11.190;2022-11-13T14:16:01;25.80;51.90
16929;DHT22;8581;47.334;11.190;2022-11-13T14:18:32;25.10;52.90
16929;DHT22;8581;47.334;11.190;2022-11-13T14:21:10;26.80;52.40
16929;DHT22;8581;47.334;11.190;2022-11-13T14:23:41;28.80;51.60
16929;DHT22;8581;47.334;11.190;2022-11-13T14:26:11;29.50;49.00
16929;DHT22;8581;47.334;11.190;2022-11-13T14:28:53;28.10;50.60
16929;DHT22;8581;47.334;11.190;2022-11-13T14:31:27;26.50;51.50
16929;DHT22;8581;47.334;11.190;2022-11-13T14:34:00;25.60;53.10
16929;DHT22;8581;47.334;11.190;2022-11-13T14:36:31;23.20;55.50
16929;DHT22;8581;47.334;11.190;2022-11-13T14:39:02;20.50;59.50
16929;DHT22;8581;47.334;11.190;2022-11-13T14:41:36;18.60;62.70
16929;DHT22;8581;47.334;11.190;2022-11-13T14:44:08;18.30;62.10
16929;DHT22;8581;47.334;11.190;2022-11-13T14:46:40;18.00;63.60
16929;DHT22;8581;47.334;11.190;2022-11-13T14:49:13;17.30;63.60
16929;DHT22;8581;47.334;11.190;2022-11-13T14:51:52;16.70;65.50
16929;DHT22;8581;47.334;11.190;2022-11-13T14:54:27;16.50;66.10
16929;DHT22;8581;47.334;11.190;2022-11-13T14:57:12;16.30;70.70
16929;DHT22;8581;47.334;11.190;2022-11-13T14:59:43;15.70;66.20
16929;DHT22;8581;47.334;11.190;2022-11-13T15:02:15;15.40;65.80
16929;DHT22;8581;47.334;11.190;2022-11-13T15:04:47;15.20;68.20
16929;DHT22;8581;47.334;11.190;2022-11-13T15:07:27;15.00;69.50
16929;DHT22;8581;47.334;11.190;2022-11-13T15:09:55;14.70;69.40
16929;DHT22;8581;47.334;11.190;2022-11-13T15:12:26;14.80;72.80
16929;DHT22;8581;47.334;11.190;2022-11-13T15:14:58;13.90;72.30
16929;DHT22;8581;47.334;11.190;2022-11-13T15:17:29;13.60;74.10
16929;DHT22;8581;47.334;11.190;2022-11-13T15:20:01;13.20;73.60
16929;DHT22;8581;47.334;11.190;2022-11-13T15:22:33;12.90;75.60
16929;DHT22;8581;47.334;11.190;2022-11-13T15:25:10;12.80;80.90
16929;DHT22;8581;47.334;11.190;2022-11-13T15:27:36;12.60;80.60
16929;DHT22;8581;47.334;11.190;2022-11-13T15:30:08;12.40;80.80
16929;DHT22;8581;47.334;11.190;2022-11-13T15:32:40;12.20;83.20
16929;DHT22;8581;47.334;11.190;2022-11-13T15:35:15;12.20;83.80
16929;DHT22;8581;47.334;11.190;2022-11-13T15:37:45;12.10;85.20
16929;DHT22;8581;47.334;11.190;2022-11-13T15:40:16;11.80;84.60
16929;DHT22;8581;47.334;11.190;2022-11-13T15:42:48;11.30;88.30
16929;DHT22;8581;47.334;11.190;2022-11-13T15:45:20;11.10;90.20
16929;DHT22;8581;47.334;11.190;2022-11-13T15:47:51;10.80;90.30
16929;DHT22;8581;47.334;11.190;2022-11-13T15:50:23;10.50;91.30
16929;DHT22;8581;47.334;11.190;2022-11-13T15:52:54;10.20;92.10
16929;DHT22;8581;47.334;11.190;2022-11-13T15:55:27;9.90;92.50
16929;DHT22;8581;47.334;11.190;2022-11-13T15:57:58;9.70;92.80
16929;DHT22;8581;47.334;11.190;2022-11-13T16:00:29;9.60;93.60
16929;DHT22;8581;47.334;11.190;2022-11-13T16:03:01;9.40;93.80
16929;DHT22;8581;47.334;11.190;2022-11-13T16:05:32;9.10;94.40
16929;DHT22;8581;47.334;11.190;2022-11-13T16:08:08;9.00;95.00
16929;DHT22;8581;47.334;11.190;2022-11-13T16:10:36;8.90;95.80
16929;DHT22;8581;47.334;11.190;2022-11-13T16:13:07;8.70;96.20
16929;DHT22;8581;47.334;11.190;2022-11-13T16:15:39;8.40;97.30
16929;DHT22;8581;47.334;11.190;2022-11-13T16:18:13;8.10;97.40
16929;DHT22;8581;47.334;11.190;2022-11-13T16:20:42;7.80;98.70
16929;DHT22;8581;47.334;11.190;2022-11-13T16:23:14;7.60;99.70
16929;DHT22;8581;47.334;11.190;2022-11-13T16:25:45;7.50;99.90
16929;DHT22;8581;47.334;11.190;2022-11-13T16:28:17;7.50;99.90
16929;DHT22;8581;47.334;11.190;2022-11-13T16:30:49;7.40;99.90
16929;DHT22;8581;47.334;11.190;2022-11-13T16:33:20;7.50;99.90